createdAt,value
2018-12-23T00:01:43.518Z,66.10
2018-12-23T00:04:12.750Z,65.50
2018-12-23T00:06:42.062Z,65.90
2018-12-23T00:09:11.251Z,66.30
2018-12-23T00:11:40.474Z,66.20
2018-12-23T00:14:09.684Z,66.20
2018-12-23T00:16:38.958Z,66.40
2018-12-23T00:19:08.186Z,65.00
2018-12-23T00:21:37.378Z,65.40
2018-12-23T00:24:06.631Z,65.60
2018-12-23T00:26:35.878Z,64.30
2018-12-23T00:29:05.092Z,65.00
2018-12-23T00:31:34.318Z,64.80
2018-12-23T00:34:03.594Z,64.70
2018-12-23T00:36:32.814Z,64.50
2018-12-23T00:39:02.099Z,64.40
2018-12-23T00:41:31.309Z,64.50
2018-12-23T00:44:00.526Z,63.80
2018-12-23T00:46:29.776Z,63.00
2018-12-23T00:48:59.051Z,63.00
2018-12-23T00:51:28.304Z,62.10
2018-12-23T00:53:57.548Z,63.20
2018-12-23T00:56:26.829Z,62.60
2018-12-23T00:58:56.044Z,63.20
2018-12-23T01:01:25.234Z,63.70
2018-12-23T01:03:54.576Z,63.50
2018-12-23T01:06:23.768Z,63.60
2018-12-23T01:08:53.088Z,64.10
2018-12-23T01:11:22.343Z,64.20
2018-12-23T01:13:51.606Z,64.70
2018-12-23T01:16:20.862Z,64.70
2018-12-23T01:18:50.115Z,64.90
2018-12-23T01:21:19.307Z,65.30
2018-12-23T01:23:48.501Z,65.50
2018-12-23T01:26:17.756Z,65.50
2018-12-23T01:28:46.986Z,65.50
2018-12-23T01:31:16.217Z,65.00
2018-12-23T01:33:45.469Z,64.90
2018-12-23T01:36:14.734Z,64.80
2018-12-23T01:38:43.948Z,64.20
2018-12-23T01:41:13.179Z,64.00
2018-12-23T01:43:42.423Z,63.90
2018-12-23T01:46:11.626Z,63.80
2018-12-23T01:48:40.843Z,63.80
2018-12-23T01:51:10.065Z,63.60
2018-12-23T01:53:39.271Z,63.60
2018-12-23T01:56:08.577Z,63.70
2018-12-23T01:58:37.794Z,63.40
2018-12-23T02:01:07.023Z,63.10
2018-12-23T02:03:36.260Z,62.60
2018-12-23T02:06:05.519Z,61.70
2018-12-23T02:08:34.774Z,60.80
2018-12-23T02:11:04.046Z,60.60
2018-12-23T02:13:33.314Z,59.30
2018-12-23T02:16:02.568Z,58.70
2018-12-23T02:18:31.851Z,58.80
2018-12-23T02:21:01.047Z,60.20
2018-12-23T02:23:30.221Z,60.10
2018-12-23T02:25:59.519Z,59.70
2018-12-23T02:28:28.749Z,59.20
2018-12-23T02:30:57.971Z,59.60
2018-12-23T02:33:27.700Z,59.20
2018-12-23T02:35:56.969Z,59.80
2018-12-23T02:38:26.155Z,59.70
2018-12-23T02:40:55.417Z,59.70
2018-12-23T02:43:24.990Z,60.00
2018-12-23T02:45:54.205Z,59.70
2018-12-23T02:48:23.482Z,59.00
2018-12-23T02:50:52.790Z,59.40
2018-12-23T02:53:22.007Z,58.40
2018-12-23T02:55:51.231Z,59.00
2018-12-23T02:58:20.419Z,59.10
2018-12-23T03:00:49.662Z,59.00
2018-12-23T03:03:18.912Z,58.50
2018-12-23T03:05:48.281Z,59.70
2018-12-23T03:08:17.507Z,59.50
2018-12-23T03:10:46.739Z,59.70
2018-12-23T03:13:16.023Z,59.30
2018-12-23T03:15:45.239Z,59.20
2018-12-23T03:18:14.477Z,58.30
2018-12-23T03:20:43.817Z,58.40
2018-12-23T03:23:13.044Z,58.30
2018-12-23T03:25:42.305Z,59.10
2018-12-23T03:28:11.500Z,59.00
2018-12-23T03:30:40.745Z,58.90
2018-12-23T03:33:10.014Z,59.20
2018-12-23T03:35:39.232Z,59.30
2018-12-23T03:38:08.438Z,59.00
2018-12-23T03:40:37.724Z,59.10
2018-12-23T03:43:06.919Z,58.70
2018-12-23T03:45:36.313Z,59.10
2018-12-23T03:48:05.598Z,58.90
2018-12-23T03:50:35.169Z,58.50
2018-12-23T03:53:04.371Z,58.90
2018-12-23T03:55:33.659Z,59.30
2018-12-23T03:58:02.826Z,58.10
2018-12-23T04:00:32.072Z,58.10
2018-12-23T04:03:01.332Z,58.70
2018-12-23T04:05:30.543Z,57.60
2018-12-23T04:07:59.774Z,57.50
2018-12-23T04:10:29.189Z,56.50
2018-12-23T04:12:58.523Z,56.60
2018-12-23T04:15:27.815Z,56.60
2018-12-23T04:17:57.187Z,56.90
2018-12-23T04:20:26.350Z,56.20
2018-12-23T04:22:55.583Z,57.10
2018-12-23T04:25:24.850Z,56.60
2018-12-23T04:27:54.091Z,56.30
2018-12-23T04:30:23.367Z,56.60
2018-12-23T04:32:52.621Z,56.80
2018-12-23T04:35:21.853Z,56.70
2018-12-23T04:37:51.066Z,57.70
2018-12-23T04:40:20.298Z,57.30
2018-12-23T04:42:49.516Z,57.40
2018-12-23T04:45:18.727Z,57.00
2018-12-23T04:47:47.997Z,57.10
2018-12-23T04:50:17.180Z,56.40
2018-12-23T04:52:47.003Z,56.90
2018-12-23T04:55:16.256Z,56.30
2018-12-23T04:57:45.501Z,55.90
2018-12-23T05:00:14.739Z,56.50
2018-12-23T05:02:43.965Z,56.80
2018-12-23T05:05:13.170Z,55.80
2018-12-23T05:07:42.355Z,56.60
2018-12-23T05:10:11.601Z,56.60
2018-12-23T05:12:40.838Z,56.60
2018-12-23T05:15:10.039Z,56.30
2018-12-23T05:17:39.386Z,56.30
2018-12-23T05:20:08.619Z,56.40
2018-12-23T05:22:37.818Z,56.30
2018-12-23T05:25:07.114Z,56.40
2018-12-23T05:27:36.373Z,56.10
2018-12-23T05:30:05.749Z,55.70
2018-12-23T05:32:35.015Z,55.20
2018-12-23T05:35:04.398Z,55.40
2018-12-23T05:37:33.625Z,54.40
2018-12-23T05:40:02.846Z,53.80
2018-12-23T05:42:32.058Z,54.00
2018-12-23T05:45:01.334Z,54.20
2018-12-23T05:47:30.644Z,54.10
2018-12-23T05:49:59.851Z,53.80
2018-12-23T05:52:29.075Z,54.80
2018-12-23T05:54:58.292Z,53.80
2018-12-23T05:57:27.495Z,54.10
2018-12-23T05:59:56.730Z,54.00
2018-12-23T06:02:25.975Z,54.10
2018-12-23T06:04:55.188Z,53.70
2018-12-23T06:07:24.394Z,53.40
2018-12-23T06:09:53.636Z,53.50
2018-12-23T06:12:22.846Z,54.00
2018-12-23T06:14:52.071Z,54.00
2018-12-23T06:17:21.253Z,53.80
2018-12-23T06:19:50.559Z,52.90
2018-12-23T06:22:19.779Z,53.00
2018-12-23T06:24:49.042Z,53.60
2018-12-23T06:27:18.269Z,53.70
2018-12-23T06:29:47.495Z,53.30
2018-12-23T06:32:17.118Z,53.30
2018-12-23T06:34:46.355Z,51.70
2018-12-23T06:37:15.568Z,53.00
2018-12-23T06:39:44.815Z,52.30
2018-12-23T06:42:14.055Z,51.40
2018-12-23T06:44:43.290Z,52.50
2018-12-23T06:47:12.609Z,52.30
2018-12-23T06:49:41.831Z,52.10
2018-12-23T06:52:11.161Z,52.00
2018-12-23T06:54:40.399Z,52.30
2018-12-23T06:57:09.642Z,52.00
2018-12-23T06:59:38.902Z,52.60
2018-12-23T07:02:08.125Z,52.70
2018-12-23T07:04:37.342Z,52.60
2018-12-23T07:07:06.565Z,52.90
2018-12-23T07:09:35.801Z,51.10
2018-12-23T07:12:05.088Z,51.30
2018-12-23T07:14:34.352Z,51.40
2018-12-23T07:17:03.614Z,52.00
2018-12-23T07:19:32.827Z,52.00
2018-12-23T07:22:02.159Z,51.20
2018-12-23T07:24:31.987Z,51.20
2018-12-23T07:27:01.218Z,51.60
2018-12-23T07:29:30.417Z,51.90
2018-12-23T07:31:59.641Z,51.20
2018-12-23T07:34:28.875Z,51.10
2018-12-23T07:36:58.091Z,51.60
2018-12-23T07:39:27.286Z,51.80
2018-12-23T07:41:56.518Z,51.30
2018-12-23T07:44:25.754Z,51.90
2018-12-23T07:46:54.968Z,52.00
2018-12-23T07:49:24.190Z,51.80
2018-12-23T07:51:53.412Z,50.80
2018-12-23T07:54:22.676Z,51.40
2018-12-23T07:56:51.875Z,50.90
2018-12-23T07:59:21.090Z,50.90
2018-12-23T08:01:50.395Z,51.60
2018-12-23T08:04:19.644Z,51.60
2018-12-23T08:06:48.907Z,51.30
2018-12-23T08:09:18.161Z,51.70
2018-12-23T08:11:47.389Z,51.70
2018-12-23T08:14:16.691Z,52.10
2018-12-23T08:16:45.926Z,51.90
2018-12-23T08:19:15.128Z,51.60
2018-12-23T08:21:44.376Z,51.00
2018-12-23T08:24:13.682Z,50.80
2018-12-23T08:26:42.921Z,50.60
2018-12-23T08:29:12.111Z,50.90
2018-12-23T08:31:41.341Z,51.70
2018-12-23T08:34:10.586Z,52.00
2018-12-23T08:36:39.791Z,52.40
2018-12-23T08:39:09.062Z,52.60
2018-12-23T08:41:38.293Z,52.80
2018-12-23T08:44:07.450Z,52.90
2018-12-23T08:46:39.229Z,53.00
2018-12-23T08:49:07.982Z,53.00
2018-12-23T08:51:37.451Z,53.10
2018-12-23T08:54:06.655Z,53.00
2018-12-23T08:56:35.863Z,51.90
2018-12-23T08:59:05.130Z,51.60
2018-12-23T09:01:34.361Z,51.50
2018-12-23T09:04:03.570Z,51.90
2018-12-23T09:06:32.822Z,52.40
2018-12-23T09:09:02.069Z,52.70
2018-12-23T09:11:31.247Z,52.70
2018-12-23T09:14:00.546Z,53.20
2018-12-23T09:16:29.751Z,53.20
2018-12-23T09:18:58.986Z,53.60
2018-12-23T09:21:28.221Z,54.10
2018-12-23T09:23:57.447Z,54.40
2018-12-23T09:26:26.739Z,54.50
2018-12-23T09:28:56.031Z,53.70
2018-12-23T09:31:25.272Z,51.90
2018-12-23T09:33:55.500Z,52.00
2018-12-23T09:36:25.801Z,52.30
2018-12-23T09:38:55.049Z,52.10
2018-12-23T09:41:24.268Z,51.60
2018-12-23T09:43:53.539Z,51.00
2018-12-23T09:46:22.782Z,49.10
2018-12-23T09:48:52.007Z,47.70
2018-12-23T09:51:21.250Z,46.50
2018-12-23T09:53:50.467Z,46.80
2018-12-23T09:56:19.763Z,47.30
2018-12-23T09:58:49.003Z,48.60
2018-12-23T10:01:18.230Z,50.70
2018-12-23T10:03:47.458Z,53.90
2018-12-23T10:06:16.994Z,57.30
2018-12-23T10:08:46.206Z,59.70
2018-12-23T10:11:15.430Z,60.80
2018-12-23T10:13:44.805Z,62.60
2018-12-23T10:16:14.090Z,63.90
2018-12-23T10:18:43.372Z,64.70
2018-12-23T10:21:12.641Z,66.40
2018-12-23T10:23:41.844Z,66.20
2018-12-23T10:26:11.055Z,66.80
2018-12-23T10:28:40.366Z,66.60
2018-12-23T10:31:09.561Z,66.90
2018-12-23T10:33:38.717Z,67.20
2018-12-23T10:36:07.981Z,67.30
2018-12-23T10:38:37.213Z,67.60
2018-12-23T10:41:06.436Z,68.10
2018-12-23T10:43:35.710Z,67.80
2018-12-23T10:46:05.015Z,67.60
2018-12-23T10:48:34.227Z,67.70
2018-12-23T10:51:03.527Z,68.60
2018-12-23T10:53:33.259Z,68.10
2018-12-23T10:56:02.499Z,67.40
2018-12-23T10:58:32.341Z,67.00
2018-12-23T11:01:01.821Z,67.10
2018-12-23T11:03:31.111Z,66.80
2018-12-23T11:06:00.382Z,66.10
2018-12-23T11:08:29.600Z,65.80
2018-12-23T11:10:59.726Z,66.00
2018-12-23T11:13:29.007Z,65.70
2018-12-23T11:15:58.265Z,65.80
2018-12-23T11:18:27.511Z,65.10
2018-12-23T11:20:56.714Z,64.00
2018-12-23T11:23:25.904Z,63.50
2018-12-23T11:25:55.162Z,63.10
2018-12-23T11:28:24.407Z,62.60
2018-12-23T11:30:53.682Z,61.70
2018-12-23T11:33:22.974Z,61.50
2018-12-23T11:35:52.195Z,60.80
2018-12-23T11:38:21.451Z,59.80
2018-12-23T11:40:50.760Z,59.70
2018-12-23T11:43:19.955Z,59.40
2018-12-23T11:45:49.219Z,59.90
2018-12-23T11:48:18.481Z,59.70
2018-12-23T11:50:47.691Z,60.00
2018-12-23T11:53:17.498Z,58.40
2018-12-23T11:55:46.777Z,57.90
2018-12-23T11:58:16.011Z,56.20
2018-12-23T12:00:45.193Z,55.90
2018-12-23T12:03:14.454Z,54.60
2018-12-23T12:05:43.663Z,54.80
2018-12-23T12:08:12.883Z,54.10
2018-12-23T12:10:42.091Z,53.50
2018-12-23T12:13:11.335Z,52.70
2018-12-23T12:15:40.542Z,52.30
2018-12-23T12:18:09.751Z,51.50
2018-12-23T12:20:38.960Z,52.60
2018-12-23T12:23:08.155Z,52.00
2018-12-23T12:25:37.375Z,52.00
2018-12-23T12:28:06.581Z,53.00
2018-12-23T12:30:35.837Z,54.30
2018-12-23T12:33:05.138Z,54.60
2018-12-23T12:35:34.330Z,53.70
2018-12-23T12:38:03.592Z,53.30
2018-12-23T12:40:32.847Z,53.90
2018-12-23T12:43:02.022Z,52.20
2018-12-23T12:45:31.255Z,50.80
2018-12-23T12:48:00.500Z,50.90
2018-12-23T12:50:29.734Z,52.70
2018-12-23T12:52:58.952Z,51.10
2018-12-23T12:55:28.220Z,50.90
2018-12-23T12:57:57.425Z,51.70
2018-12-23T13:00:26.673Z,51.70
2018-12-23T13:02:55.863Z,53.20
2018-12-23T13:05:25.043Z,52.80
2018-12-23T13:07:54.244Z,53.00
2018-12-23T13:10:23.556Z,54.20
2018-12-23T13:12:52.821Z,54.20
2018-12-23T13:15:22.043Z,53.90
2018-12-23T13:17:51.309Z,54.20
2018-12-23T13:20:20.511Z,54.20
2018-12-23T13:22:49.735Z,54.30
2018-12-23T13:25:19.012Z,54.00
2018-12-23T13:27:48.253Z,53.80
2018-12-23T13:30:17.463Z,54.50
2018-12-23T13:32:46.675Z,54.90
2018-12-23T13:35:16.001Z,55.10
2018-12-23T13:37:45.286Z,54.60
2018-12-23T13:40:21.982Z,54.40
2018-12-23T13:43:05.602Z,55.20
2018-12-23T13:45:50.602Z,55.40
2018-12-23T13:48:36.804Z,54.80
2018-12-23T13:52:16.886Z,54.50
2018-12-23T13:55:54.871Z,54.90
2018-12-23T13:59:32.251Z,55.30
2018-12-23T14:02:14.442Z,55.70
2018-12-23T14:05:52.562Z,56.50
2018-12-23T14:08:34.666Z,58.10
2018-12-23T14:11:36.562Z,58.10
2018-12-23T14:14:06.374Z,58.90
2018-12-23T14:16:36.044Z,59.80
2018-12-23T14:19:05.435Z,59.80
2018-12-23T14:21:34.748Z,60.90
2018-12-23T14:24:03.997Z,61.40
2018-12-23T14:26:33.270Z,61.70
2018-12-23T14:29:02.510Z,63.20
2018-12-23T14:31:31.735Z,62.90
2018-12-23T14:34:01.001Z,63.60
2018-12-23T14:36:30.303Z,63.50
2018-12-23T14:38:59.542Z,65.00
2018-12-23T14:41:28.791Z,65.20
2018-12-23T14:43:57.951Z,65.90
2018-12-23T14:46:27.226Z,65.60
2018-12-23T14:48:56.441Z,65.50
2018-12-23T14:51:25.670Z,66.00
2018-12-23T14:53:54.879Z,66.70
2018-12-23T14:56:24.069Z,67.90
2018-12-23T14:58:53.927Z,68.10
2018-12-23T15:01:23.270Z,67.40
2018-12-23T15:03:52.472Z,67.30
2018-12-23T15:06:22.102Z,69.20
2018-12-23T15:08:51.331Z,70.00
2018-12-23T15:11:20.563Z,67.60
2018-12-23T15:13:49.782Z,66.90
2018-12-23T15:16:19.057Z,67.30
2018-12-23T15:18:48.817Z,67.10
2018-12-23T15:21:18.078Z,67.60
2018-12-23T15:23:47.371Z,67.10
2018-12-23T15:26:16.552Z,66.50
2018-12-23T15:28:45.851Z,66.70
2018-12-23T15:31:15.058Z,66.80
2018-12-23T15:33:44.254Z,67.10
2018-12-23T15:36:13.514Z,67.70
2018-12-23T15:38:42.769Z,67.40
2018-12-23T15:41:12.006Z,67.30
2018-12-23T15:43:41.218Z,67.90
2018-12-23T15:46:10.472Z,68.60
2018-12-23T15:48:40.174Z,68.80
2018-12-23T15:51:09.459Z,69.10
2018-12-23T15:53:38.687Z,69.40
2018-12-23T15:56:07.897Z,69.80
2018-12-23T15:58:37.155Z,71.60
2018-12-23T16:01:06.372Z,71.30
2018-12-23T16:03:35.694Z,72.10
2018-12-23T16:06:04.946Z,71.90
2018-12-23T16:08:34.181Z,72.40
2018-12-23T16:11:03.418Z,73.00
2018-12-23T16:13:32.726Z,73.50
2018-12-23T16:16:01.919Z,73.70
2018-12-23T16:18:31.154Z,73.90
2018-12-23T16:21:00.420Z,73.60
2018-12-23T16:23:29.615Z,73.60
2018-12-23T16:25:58.838Z,73.50
2018-12-23T16:28:28.059Z,73.20
2018-12-23T16:30:57.284Z,73.10
2018-12-23T16:33:26.512Z,72.90
2018-12-23T16:35:55.726Z,72.70
2018-12-23T16:38:25.106Z,72.60
2018-12-23T16:40:54.460Z,72.60
2018-12-23T16:43:23.712Z,72.40
2018-12-23T16:45:52.914Z,72.20
2018-12-23T16:48:22.123Z,72.00
2018-12-23T16:50:51.415Z,71.90
2018-12-23T16:53:20.642Z,71.80
2018-12-23T16:55:49.864Z,71.70
2018-12-23T16:58:19.086Z,71.60
2018-12-23T17:00:48.332Z,72.30
2018-12-23T17:03:17.598Z,71.50
2018-12-23T17:05:46.825Z,71.50
2018-12-23T17:08:16.055Z,71.50
2018-12-23T17:10:45.248Z,71.40
2018-12-23T17:13:14.491Z,71.30
2018-12-23T17:15:43.723Z,71.30
2018-12-23T17:18:13.407Z,71.30
2018-12-23T17:20:42.657Z,71.10
2018-12-23T17:23:11.879Z,71.20
2018-12-23T17:25:41.070Z,71.00
2018-12-23T17:28:10.272Z,70.60
2018-12-23T17:30:39.473Z,70.50
2018-12-23T17:33:08.726Z,70.60
2018-12-23T17:35:37.971Z,70.50
2018-12-23T17:38:07.195Z,70.60
2018-12-23T17:40:36.395Z,70.40
2018-12-23T17:43:05.729Z,70.30
2018-12-23T17:45:35.164Z,70.50
2018-12-23T17:48:04.420Z,70.00
2018-12-23T17:50:33.648Z,70.10
2018-12-23T17:53:02.898Z,70.20
2018-12-23T17:55:32.104Z,70.00
2018-12-23T17:58:01.348Z,69.70
2018-12-23T18:00:30.586Z,69.30
2018-12-23T18:02:59.833Z,68.90
2018-12-23T18:05:29.044Z,67.90
2018-12-23T18:07:58.248Z,68.60
2018-12-23T18:10:27.473Z,68.60
2018-12-23T18:12:56.768Z,68.50
2018-12-23T18:15:27.076Z,68.50
2018-12-23T18:17:56.475Z,68.10
2018-12-23T18:20:25.779Z,67.20
2018-12-23T18:22:55.086Z,65.20
2018-12-23T18:25:24.373Z,65.60
2018-12-23T18:27:53.633Z,62.70
2018-12-23T18:30:22.860Z,62.00
2018-12-23T18:32:52.095Z,62.30
2018-12-23T18:35:21.289Z,59.80
2018-12-23T18:37:50.511Z,60.00
2018-12-23T18:40:51.762Z,61.60
2018-12-23T18:43:21.723Z,61.20
2018-12-23T18:45:51.727Z,61.90
2018-12-23T18:48:21.791Z,61.80
2018-12-23T18:50:51.779Z,61.60
2018-12-23T18:53:21.781Z,62.00
2018-12-23T18:55:51.749Z,61.10
2018-12-23T18:58:21.818Z,61.50
2018-12-23T19:00:55.872Z,60.70
2018-12-23T19:03:25.852Z,60.00
2018-12-23T19:05:55.875Z,60.40
2018-12-23T19:08:59.537Z,58.70
2018-12-23T19:12:12.912Z,58.30
2018-12-23T19:15:15.111Z,57.20
2018-12-23T19:18:44.019Z,57.90
2018-12-23T19:21:32.920Z,57.40
2018-12-23T19:24:48.106Z,57.70
2018-12-23T19:28:26.465Z,56.00
2018-12-23T19:31:26.656Z,56.60
2018-12-23T19:34:36.046Z,56.50
2018-12-23T19:37:45.055Z,55.60
2018-12-23T19:41:02.152Z,53.90
2018-12-23T19:44:02.675Z,54.50
2018-12-23T19:47:22.700Z,53.70
2018-12-23T19:50:29.540Z,53.50
2018-12-23T19:53:51.313Z,52.80
2018-12-23T19:56:56.735Z,53.40
2018-12-23T20:00:13.875Z,52.10
2018-12-23T20:02:57.886Z,49.80
2018-12-23T20:06:07.356Z,51.90
2018-12-23T20:09:17.167Z,51.50
2018-12-23T20:12:41.424Z,51.40
2018-12-23T20:16:00.435Z,51.30
2018-12-23T20:19:23.945Z,52.50
2018-12-23T20:22:41.179Z,53.10
2018-12-23T20:25:21.523Z,52.70
2018-12-23T20:28:32.049Z,52.40
2018-12-23T20:31:38.735Z,52.40
2018-12-23T20:34:55.612Z,52.90
2018-12-23T20:37:50.251Z,52.70
2018-12-23T20:41:08.544Z,52.80
2018-12-23T20:44:20.898Z,52.50
2018-12-23T20:47:24.388Z,52.20
2018-12-23T20:50:50.146Z,51.60
2018-12-23T20:54:01.356Z,51.60
2018-12-23T20:57:18.332Z,52.10
2018-12-23T21:00:43.004Z,52.80
2018-12-23T21:03:55.301Z,52.70
2018-12-23T21:06:49.058Z,52.30
2018-12-23T21:09:55.923Z,50.80
2018-12-23T21:13:09.121Z,50.00
2018-12-23T21:16:20.028Z,50.80
2018-12-23T21:19:39.333Z,51.40
2018-12-23T21:22:43.571Z,50.60
2018-12-23T21:25:54.166Z,51.50
2018-12-23T21:28:45.236Z,50.60
2018-12-23T21:31:51.599Z,50.50
2018-12-23T21:34:59.528Z,50.80
2018-12-23T21:37:59.946Z,51.00
2018-12-23T21:41:10.672Z,50.10
2018-12-23T21:44:23.894Z,50.60
2018-12-23T21:47:34.001Z,50.80
2018-12-23T21:50:40.649Z,51.30
2018-12-23T21:53:52.538Z,51.10
2018-12-23T21:57:00.644Z,50.80
2018-12-23T22:00:10.438Z,50.40
2018-12-23T22:03:20.383Z,51.00
2018-12-23T22:06:32.298Z,51.30
2018-12-23T22:09:35.451Z,49.90
2018-12-23T22:12:43.603Z,50.80
2018-12-23T22:15:13.599Z,49.90
2018-12-23T22:17:43.523Z,50.70
2018-12-23T22:20:13.553Z,50.60
2018-12-23T22:22:43.511Z,50.00
2018-12-23T22:25:13.535Z,50.20
2018-12-23T22:27:43.524Z,50.50
2018-12-23T22:30:13.447Z,50.20
2018-12-23T22:32:43.466Z,49.80
2018-12-23T22:35:13.504Z,49.80
2018-12-23T22:37:43.458Z,49.90
2018-12-23T22:40:13.386Z,49.70
2018-12-23T22:42:43.340Z,49.70
2018-12-23T22:45:13.347Z,49.90
2018-12-23T22:47:43.352Z,49.20
2018-12-23T22:50:13.360Z,49.70
2018-12-23T22:52:43.288Z,49.10
2018-12-23T22:55:13.240Z,49.20
2018-12-23T22:57:43.222Z,50.00
2018-12-23T23:00:15.812Z,49.80
2018-12-23T23:02:45.843Z,49.30
2018-12-23T23:05:15.952Z,50.40
2018-12-23T23:07:45.944Z,50.10
2018-12-23T23:10:15.908Z,50.20
2018-12-23T23:12:45.883Z,50.00
2018-12-23T23:15:15.843Z,50.00
2018-12-23T23:17:45.819Z,50.40
2018-12-23T23:20:15.745Z,49.70
2018-12-23T23:22:45.694Z,49.70
2018-12-23T23:25:15.639Z,48.70
2018-12-23T23:27:45.583Z,49.50
2018-12-23T23:30:15.507Z,49.50
2018-12-23T23:32:45.469Z,48.20
2018-12-23T23:35:15.442Z,49.10
2018-12-23T23:37:45.432Z,48.40
2018-12-23T23:40:15.390Z,47.50
2018-12-23T23:42:45.467Z,47.30
2018-12-23T23:45:15.424Z,47.70
2018-12-23T23:47:45.447Z,47.60
2018-12-23T23:50:15.391Z,48.40
2018-12-23T23:52:45.319Z,48.30
2018-12-23T23:55:15.308Z,48.30
2018-12-23T23:57:45.258Z,47.90
